CheckWX is a tool to help pilots better visualize weather data.  It is not intended as a substitute for an official pre-flight weather briefing.

13:41:14 UTC

CYKL METAR
Schefferville Airport
Schefferville, Canada
Current

14 mins ago

CYKL 201327Z AUTO 16013G19KT 5SM BR BKN006 OVC014 13/13 A2945 RMK SLP982 DENSITY ALT 2400FT
Observed
Jul-20 @ 13:27 UTC
Wind
  • 160° at 13 KTS
  • Gusting to 19 KTS
Visibility
5 SM
Flight Rules
IFR
Conditions
Mist
Cloud Levels
  • Broken at 600' AGL
  • Overcast at 1,400' AGL
Temperature
13°C / 55°F
Dewpoint
13°C / 55°F
Humidity
100%
Altimeter
29.45" Hg
Pressure
997.32 hPa
Previous

38 mins ago

CYKL 201303Z AUTO 17009G15KT 5SM BR BKN006 OVC014 13/12 A2945 RMK SLP985 DENSITY ALT 2300FT
Observed
Jul-20 @ 13:03 UTC
Wind
  • 170° at 9 KTS
  • Gusting to 15 KTS
Visibility
5 SM
Flight Rules
IFR
Conditions
Mist
Cloud Levels
  • Broken at 600' AGL
  • Overcast at 1,400' AGL
Temperature
13°C / 55°F
Dewpoint
12°C / 54°F
Humidity
94%
Altimeter
29.45" Hg
Pressure
997.32 hPa
Previous

55 mins ago

CYKL 201246Z AUTO 17011KT 6SM -RA BR BKN006 OVC012 13/12 A2946 RMK SLP985 DENSITY ALT 2300FT
Observed
Jul-20 @ 12:46 UTC
Wind
  • 170° at 11 KTS
Visibility
6 SM
Flight Rules
IFR
Conditions
Light Rain, Mist
Cloud Levels
  • Broken at 600' AGL
  • Overcast at 1,200' AGL
Temperature
13°C / 55°F
Dewpoint
12°C / 54°F
Humidity
94%
Altimeter
29.46" Hg
Pressure
997.62 hPa